Time;durP1;ratioP1;P1;durP2;ratioP2;P2;SDS_P1;SDS_P2;PMS_P1;PMS_P2;Temp;Humidity;BMP_temperature;BMP_pressure;BME280_temperature;BME280_humidity;BME280_pressure;Samples;Min_cycle;Max_cycle;Signal;HPM_P1;HPM_P2
2023/12/29 00:00:19;;;;;;;17.38;9.45;;;24.00;43.80;;;;;;6251261;27;80606;-50
2023/12/29 00:03:19;;;;;;;17.42;10.15;;;24.00;44.20;;;;;;6250734;27;80449;-54
2023/12/29 00:06:20;;;;;;;14.15;9.25;;;24.00;44.30;;;;;;6246152;27;82973;-54
2023/12/29 00:09:21;;;;;;;17.45;9.05;;;24.00;44.40;;;;;;6251283;27;83532;-54
2023/12/29 00:12:21;;;;;;;14.60;8.77;;;24.00;44.40;;;;;;6249459;27;80882;-53
2023/12/29 00:15:22;;;;;;;16.33;9.50;;;24.00;44.50;;;;;;6250921;27;80556;-58
2023/12/29 00:18:22;;;;;;;17.40;10.25;;;24.00;44.30;;;;;;6248993;27;83277;-58
2023/12/29 00:21:23;;;;;;;16.75;9.30;;;24.00;44.30;;;;;;6246794;27;83347;-58
2023/12/29 00:24:23;;;;;;;15.90;9.52;;;24.00;44.40;;;;;;6248861;27;82977;-58
2023/12/29 00:27:24;;;;;;;18.10;9.75;;;24.00;44.40;;;;;;6250624;27;80658;-58
2023/12/29 00:30:24;;;;;;;14.52;9.82;;;24.00;44.30;;;;;;6249675;27;80568;-58
2023/12/29 00:33:25;;;;;;;17.42;10.15;;;24.00;44.20;;;;;;6248368;27;83389;-58
2023/12/29 00:36:25;;;;;;;16.90;10.15;;;24.00;44.30;;;;;;6246414;27;87438;-59
2023/12/29 00:39:30;;;;;;;20.70;10.85;;;24.00;44.20;;;;;;6247907;27;83174;-59
2023/12/29 00:42:31;;;;;;;16.07;9.40;;;24.00;44.10;;;;;;6251790;27;85800;-59
2023/12/29 00:45:35;;;;;;;20.55;10.77;;;24.00;44.10;;;;;;6247337;27;82854;-59
2023/12/29 00:48:36;;;;;;;15.57;10.50;;;24.00;44.40;;;;;;6246836;27;83193;-59
2023/12/29 00:51:36;;;;;;;16.25;9.95;;;24.00;44.50;;;;;;6245096;27;83202;-59
2023/12/29 00:54:37;;;;;;;19.63;10.88;;;23.90;44.30;;;;;;6249285;27;83193;-59
2023/12/29 00:57:37;;;;;;;17.00;10.82;;;23.90;44.10;;;;;;6245642;27;83795;-59
2023/12/29 01:00:38;;;;;;;19.48;11.25;;;23.90;44.30;;;;;;6244730;27;91648;-60
2023/12/29 01:03:38;;;;;;;17.40;10.88;;;23.90;44.20;;;;;;6246859;27;83153;-59
2023/12/29 01:06:40;;;;;;;20.65;11.02;;;23.90;44.30;;;;;;6245335;27;83615;-59
2023/12/29 01:09:41;;;;;;;18.77;11.50;;;23.90;44.40;;;;;;6246519;27;85511;-58
2023/12/29 01:12:42;;;;;;;18.15;10.98;;;23.90;44.50;;;;;;6244935;27;83164;-59
2023/12/29 01:15:45;;;;;;;18.20;10.90;;;23.90;44.40;;;;;;6245113;27;83250;-59
2023/12/29 01:18:46;;;;;;;17.63;11.15;;;23.90;44.40;;;;;;6243480;27;84558;-59
2023/12/29 01:21:46;;;;;;;18.60;11.13;;;23.90;44.40;;;;;;6245407;27;83356;-59
2023/12/29 01:24:47;;;;;;;16.00;10.15;;;23.90;44.50;;;;;;6246738;27;84393;-60
2023/12/29 01:27:47;;;;;;;14.85;9.70;;;23.90;44.50;;;;;;6245384;27;83371;-59
2023/12/29 01:30:48;;;;;;;15.98;10.68;;;23.90;44.60;;;;;;6249476;27;82899;-60
2023/12/29 01:33:48;;;;;;;17.60;9.95;;;23.90;44.50;;;;;;6246036;27;83583;-59
2023/12/29 01:36:50;;;;;;;18.30;10.68;;;23.90;44.60;;;;;;6246231;27;85730;-59
2023/12/29 01:39:51;;;;;;;18.27;11.10;;;23.90;44.60;;;;;;6244914;27;83528;-59
2023/12/29 01:42:51;;;;;;;17.40;10.07;;;23.80;44.60;;;;;;6244621;27;83234;-59
2023/12/29 01:45:52;;;;;;;15.77;9.75;;;23.90;44.80;;;;;;6243446;27;85869;-60
2023/12/29 01:48:52;;;;;;;14.70;9.95;;;23.80;44.70;;;;;;6246538;27;84110;-59
2023/12/29 01:51:53;;;;;;;17.38;10.30;;;23.80;44.70;;;;;;6248512;27;80966;-59
2023/12/29 01:54:53;;;;;;;18.02;10.10;;;23.80;44.80;;;;;;6246456;27;83401;-59
2023/12/29 01:57:54;;;;;;;18.95;10.23;;;23.80;44.70;;;;;;6245630;27;83145;-59
2023/12/29 02:00:54;;;;;;;20.15;11.15;;;23.80;44.70;;;;;;6243946;27;85677;-59
2023/12/29 02:03:55;;;;;;;17.67;10.85;;;23.80;44.70;;;;;;6242713;27;85967;-58
2023/12/29 02:06:55;;;;;;;17.25;10.13;;;23.80;44.90;;;;;;6245616;27;84165;-59
2023/12/29 02:09:56;;;;;;;17.00;10.48;;;23.80;44.90;;;;;;6248876;27;84198;-58
2023/12/29 02:12:59;;;;;;;16.63;10.32;;;23.80;44.80;;;;;;6247488;27;85797;-58
2023/12/29 02:15:59;;;;;;;19.42;10.73;;;23.80;44.80;;;;;;6247691;27;84754;-59
2023/12/29 02:19:00;;;;;;;17.40;10.35;;;23.80;44.80;;;;;;6247931;27;84057;-57
2023/12/29 02:22:00;;;;;;;19.55;11.18;;;23.80;44.90;;;;;;6247407;27;85923;-58
2023/12/29 02:25:01;;;;;;;20.02;11.68;;;23.80;44.80;;;;;;6247455;27;85896;-58
2023/12/29 02:28:02;;;;;;;17.02;10.07;;;23.80;44.70;;;;;;6250312;27;83218;-58
2023/12/29 02:31:03;;;;;;;18.25;10.52;;;23.80;44.70;;;;;;6247092;27;85967;-58
2023/12/29 02:34:06;;;;;;;18.92;10.70;;;23.80;44.70;;;;;;6247661;27;84688;-58
2023/12/29 02:37:06;;;;;;;18.02;10.63;;;23.80;45.40;;;;;;6245380;27;84915;-58
2023/12/29 02:40:07;;;;;;;18.45;10.60;;;23.80;44.70;;;;;;6247689;27;84436;-57
2023/12/29 02:43:07;;;;;;;20.67;10.70;;;23.80;44.70;;;;;;6248587;27;83448;-59
2023/12/29 02:46:08;;;;;;;16.02;10.13;;;23.80;44.80;;;;;;6249304;27;83669;-59
2023/12/29 02:49:12;;;;;;;16.58;10.75;;;23.80;44.90;;;;;;6248408;27;85751;-59
2023/12/29 02:52:13;;;;;;;19.05;10.82;;;23.70;44.60;;;;;;6249025;27;83115;-58
2023/12/29 02:55:13;;;;;;;18.02;10.80;;;23.70;44.70;;;;;;6249273;27;83445;-58
2023/12/29 02:58:14;;;;;;;19.45;10.90;;;23.80;44.80;;;;;;6249641;27;83355;-59
2023/12/29 03:01:14;;;;;;;18.25;9.75;;;23.80;44.60;;;;;;6248772;27;82732;-58
2023/12/29 03:04:15;;;;;;;17.10;11.20;;;23.70;44.70;;;;;;6249950;27;84156;-58
2023/12/29 03:07:15;;;;;;;15.82;9.30;;;23.70;44.70;;;;;;6247239;27;83686;-58
2023/12/29 03:10:16;;;;;;;16.27;10.20;;;23.80;44.90;;;;;;6251902;27;81590;-58
2023/12/29 03:13:17;;;;;;;20.20;10.77;;;23.80;44.70;;;;;;6246497;27;83433;-58
2023/12/29 03:16:17;;;;;;;15.65;9.48;;;23.80;44.80;;;;;;6249317;27;83256;-58
2023/12/29 03:19:19;;;;;;;16.15;9.80;;;23.70;44.70;;;;;;6251561;27;82901;-59
2023/12/29 03:22:20;;;;;;;15.23;8.82;;;23.70;44.90;;;;;;6252336;27;80077;-59
2023/12/29 03:25:21;;;;;;;14.43;9.32;;;23.80;44.80;;;;;;6245348;27;83381;-59
2023/12/29 03:28:24;;;;;;;15.77;9.98;;;23.70;44.80;;;;;;6251225;27;80137;-59
2023/12/29 03:31:25;;;;;;;15.40;9.52;;;23.70;44.80;;;;;;6246724;27;82971;-60
2023/12/29 03:34:25;;;;;;;14.73;8.98;;;23.70;44.90;;;;;;6252292;27;83732;-59
2023/12/29 03:37:25;;;;;;;13.50;8.60;;;23.70;44.90;;;;;;6250373;27;81674;-50
2023/12/29 03:40:26;;;;;;;16.35;8.77;;;23.70;44.90;;;;;;6252173;27;80969;-49
2023/12/29 03:43:26;;;;;;;14.20;8.38;;;23.70;44.90;;;;;;6251592;27;80329;-53
2023/12/29 03:46:28;;;;;;;13.95;8.05;;;23.70;45.00;;;;;;6249644;27;82059;-51
2023/12/29 03:49:31;;;;;;;15.43;8.95;;;23.70;44.90;;;;;;6248918;27;81668;-50
2023/12/29 03:52:31;;;;;;;15.82;9.75;;;23.70;44.90;;;;;;6250508;27;80186;-50
2023/12/29 03:55:32;;;;;;;16.73;8.88;;;23.70;44.90;;;;;;6249614;27;82268;-58
2023/12/29 03:58:32;;;;;;;14.77;8.55;;;23.70;44.90;;;;;;6249870;27;82751;-59
2023/12/29 04:01:32;;;;;;;15.18;9.57;;;23.70;45.00;;;;;;6248806;27;81920;-59
2023/12/29 04:04:33;;;;;;;14.55;8.90;;;23.70;45.00;;;;;;6250537;27;81099;-59
2023/12/29 04:07:35;;;;;;;13.90;8.57;;;23.70;45.00;;;;;;6251329;27;80463;-59
2023/12/29 04:10:35;;;;;;;14.40;9.23;;;23.70;44.90;;;;;;6248739;27;80507;-59
2023/12/29 04:13:36;;;;;;;13.63;8.43;;;23.70;44.90;;;;;;6252106;27;81420;-49
2023/12/29 04:16:37;;;;;;;13.57;8.52;;;23.80;45.10;;;;;;6250313;27;80402;-51
2023/12/29 04:19:38;;;;;;;11.95;7.38;;;23.80;45.10;;;;;;6249358;27;82951;-49
2023/12/29 04:22:38;;;;;;;12.07;7.63;;;23.80;44.80;;;;;;6250023;27;80119;-49
2023/12/29 04:25:39;;;;;;;10.70;7.20;;;23.90;44.90;;;;;;6248932;27;82391;-51
2023/12/29 04:28:40;;;;;;;11.35;6.85;;;23.90;44.80;;;;;;6250285;27;81442;-48
2023/12/29 04:31:40;;;;;;;10.43;5.45;;;23.90;44.80;;;;;;6247323;27;82473;-53
2023/12/29 04:34:41;;;;;;;9.88;6.30;;;24.00;45.00;;;;;;6250264;27;80949;-53
2023/12/29 04:37:41;;;;;;;11.38;6.22;;;24.00;44.60;;;;;;6248172;27;82973;-53
2023/12/29 04:40:42;;;;;;;6.53;5.15;;;24.00;44.30;;;;;;6250394;27;81353;-51
2023/12/29 04:43:42;;;;;;;7.80;4.32;;;24.00;44.30;;;;;;6248025;27;83275;-49
2023/12/29 04:46:43;;;;;;;8.15;4.72;;;24.10;44.30;;;;;;6250255;27;81775;-52
2023/12/29 04:49:44;;;;;;;5.82;3.90;;;24.10;44.60;;;;;;6249265;27;80877;-49
2023/12/29 04:52:44;;;;;;;6.18;4.20;;;24.10;44.30;;;;;;6251294;27;80022;-52
2023/12/29 04:55:45;;;;;;;12.05;4.10;;;24.10;44.20;;;;;;6250289;27;80923;-49
2023/12/29 04:58:45;;;;;;;6.72;4.13;;;24.10;44.10;;;;;;6250215;27;80193;-50
2023/12/29 05:01:45;;;;;;;6.53;3.42;;;24.10;44.20;;;;;;6249703;27;80638;-49
2023/12/29 05:04:46;;;;;;;5.22;3.03;;;24.20;44.10;;;;;;6249215;27;81647;-53
2023/12/29 05:07:46;;;;;;;4.95;3.22;;;24.20;43.90;;;;;;6249491;27;80131;-54
2023/12/29 05:10:47;;;;;;;5.00;2.92;;;24.20;44.00;;;;;;6249267;27;80483;-51
2023/12/29 05:13:48;;;;;;;5.47;3.53;;;24.20;44.00;;;;;;6249134;27;81047;-50
2023/12/29 05:16:48;;;;;;;4.10;2.45;;;24.30;44.40;;;;;;6249854;27;80330;-50
2023/12/29 05:19:49;;;;;;;3.78;2.78;;;24.20;44.10;;;;;;6249664;27;80448;-49
2023/12/29 05:22:49;;;;;;;4.55;3.10;;;24.20;44.30;;;;;;6247872;27;80379;-50
2023/12/29 05:25:50;;;;;;;3.35;2.30;;;24.20;44.20;;;;;;6249780;27;83697;-50
2023/12/29 05:28:50;;;;;;;3.63;2.63;;;24.30;44.40;;;;;;6250582;27;80656;-52
2023/12/29 05:31:51;;;;;;;3.85;2.42;;;24.30;44.30;;;;;;6248748;27;81038;-52
2023/12/29 05:34:51;;;;;;;6.18;2.72;;;24.30;44.40;;;;;;6250194;27;81441;-52
2023/12/29 05:37:52;;;;;;;4.45;3.00;;;24.30;44.70;;;;;;6249566;27;81092;-50
2023/12/29 05:40:52;;;;;;;5.43;3.20;;;24.30;44.80;;;;;;6248230;27;84153;-48
2023/12/29 05:43:52;;;;;;;6.00;3.70;;;24.30;44.90;;;;;;6251819;27;83671;-48
2023/12/29 05:46:54;;;;;;;5.68;3.72;;;24.30;44.90;;;;;;6251033;27;81821;-50
2023/12/29 05:49:55;;;;;;;5.20;4.00;;;24.30;44.90;;;;;;6249288;27;80548;-48
2023/12/29 05:52:55;;;;;;;7.03;4.40;;;24.30;45.10;;;;;;6248835;27;80857;-51
2023/12/29 05:55:56;;;;;;;6.22;4.88;;;24.30;45.00;;;;;;6254627;27;84197;-52
2023/12/29 05:58:56;;;;;;;7.68;4.93;;;24.30;45.00;;;;;;6252150;27;80161;-52
2023/12/29 06:01:57;;;;;;;7.10;4.35;;;24.20;45.00;;;;;;6245584;27;81438;-52
2023/12/29 06:04:57;;;;;;;7.55;4.93;;;24.30;45.00;;;;;;6251638;27;80699;-58
2023/12/29 06:07:58;;;;;;;6.45;4.45;;;24.30;45.40;;;;;;6253545;27;81421;-59
2023/12/29 06:10:58;;;;;;;7.28;4.60;;;24.30;45.10;;;;;;6249390;27;84827;-59
2023/12/29 06:13:59;;;;;;;7.85;5.00;;;24.20;45.00;;;;;;6250773;27;80366;-60
2023/12/29 06:17:00;;;;;;;7.82;4.88;;;24.20;44.90;;;;;;6237335;27;82006;-59
2023/12/29 06:20:00;;;;;;;6.03;4.22;;;24.20;45.20;;;;;;6234977;27;84247;-59
2023/12/29 06:23:01;;;;;;;9.07;4.82;;;24.20;45.00;;;;;;6250115;27;82447;-55
2023/12/29 06:26:01;;;;;;;12.60;4.85;;;24.20;45.20;;;;;;6252919;27;81424;-54
2023/12/29 06:29:02;;;;;;;6.43;4.55;;;24.20;45.30;;;;;;6250518;27;83270;-54
2023/12/29 06:32:02;;;;;;;7.60;4.75;;;24.20;45.40;;;;;;6252010;27;81098;-59
2023/12/29 06:35:03;;;;;;;6.90;3.83;;;24.20;45.50;;;;;;6249599;27;81304;-58
2023/12/29 06:38:03;;;;;;;7.30;4.40;;;24.20;45.80;;;;;;6253484;27;81479;-52
2023/12/29 06:41:04;;;;;;;7.38;4.35;;;24.20;45.50;;;;;;6252473;27;80546;-50
2023/12/29 06:44:04;;;;;;;7.63;3.90;;;24.10;45.50;;;;;;6251621;27;81782;-50
2023/12/29 06:47:06;;;;;;;6.78;3.83;;;24.10;45.70;;;;;;6252737;27;81288;-53
2023/12/29 06:50:09;;;;;;;14.05;4.32;;;24.10;45.50;;;;;;6244833;27;80827;-53
2023/12/29 06:53:10;;;;;;;13.23;4.15;;;24.10;46.20;;;;;;6242971;27;81292;-54
2023/12/29 06:56:10;;;;;;;11.55;3.75;;;24.10;46.00;;;;;;6236920;27;82105;-57
2023/12/29 06:59:10;;;;;;;9.60;4.03;;;24.00;46.10;;;;;;6242905;27;83412;-56
2023/12/29 07:02:11;;;;;;;8.77;3.47;;;24.00;46.40;;;;;;6250595;27;81616;-57
2023/12/29 07:05:11;;;;;;;9.75;4.65;;;24.00;46.20;;;;;;6250939;27;80731;-57
2023/12/29 07:08:12;;;;;;;14.30;3.50;;;24.00;45.90;;;;;;6245375;27;82638;-57
2023/12/29 07:11:13;;;;;;;10.00;3.40;;;24.00;46.20;;;;;;6250457;27;80401;-58
2023/12/29 07:14:13;;;;;;;8.50;3.50;;;24.00;46.00;;;;;;6247698;27;83678;-58
2023/12/29 07:17:14;;;;;;;4.32;2.92;;;24.00;45.80;;;;;;6250268;27;80596;-56
2023/12/29 07:20:14;;;;;;;7.40;3.55;;;24.00;45.90;;;;;;6251647;27;80830;-56
2023/12/29 07:23:14;;;;;;;8.13;3.25;;;24.00;46.10;;;;;;6250784;27;80442;-55
2023/12/29 07:26:15;;;;;;;7.63;3.10;;;24.00;46.20;;;;;;6248315;27;81372;-57
2023/12/29 07:29:15;;;;;;;9.40;2.92;;;24.00;46.30;;;;;;6252060;27;80548;-53
2023/12/29 07:32:16;;;;;;;7.43;3.72;;;24.00;46.60;;;;;;6250163;27;81007;-57
2023/12/29 07:35:17;;;;;;;13.73;3.10;;;24.00;46.70;;;;;;6251015;27;81819;-55
2023/12/29 07:38:17;;;;;;;10.25;3.05;;;24.00;46.60;;;;;;6251237;27;80331;-56
2023/12/29 07:41:18;;;;;;;5.35;3.47;;;24.00;46.80;;;;;;6252121;27;80983;-59
2023/12/29 07:44:19;;;;;;;8.50;3.10;;;24.00;46.90;;;;;;6247599;27;80714;-57
2023/12/29 07:47:19;;;;;;;6.22;2.95;;;24.00;47.30;;;;;;6251818;27;80253;-57
2023/12/29 07:50:20;;;;;;;7.57;3.13;;;24.00;47.50;;;;;;6249259;27;80836;-61
2023/12/29 07:53:21;;;;;;;5.50;3.60;;;24.00;47.40;;;;;;6245369;27;83180;-58
2023/12/29 07:56:21;;;;;;;7.57;4.05;;;24.00;47.80;;;;;;6251198;27;80712;-54
2023/12/29 07:59:22;;;;;;;6.75;4.30;;;24.00;47.70;;;;;;6250627;27;80992;-50
2023/12/29 08:02:22;;;;;;;9.55;5.25;;;24.00;48.00;;;;;;6231941;27;81559;-53
2023/12/29 08:05:22;;;;;;;9.63;6.47;;;24.10;48.40;;;;;;6251286;27;80346;-53
2023/12/29 08:08:23;;;;;;;10.52;5.75;;;24.10;49.10;;;;;;6250692;27;81806;-54
2023/12/29 08:11:23;;;;;;;11.52;6.00;;;24.20;49.60;;;;;;6250403;27;81638;-49
2023/12/29 08:14:24;;;;;;;11.75;6.90;;;24.20;50.00;;;;;;6250995;27;80716;-52
2023/12/29 08:17:24;;;;;;;13.35;7.30;;;24.30;50.60;;;;;;6251518;27;81472;-54
2023/12/29 08:20:25;;;;;;;21.08;7.50;;;24.30;50.90;;;;;;6248251;27;80660;-54
2023/12/29 08:23:28;;;;;;;18.83;7.38;;;24.30;50.50;;;;;;6248555;27;80843;-55
2023/12/29 08:26:29;;;;;;;12.38;6.35;;;24.40;50.30;;;;;;6250364;27;81047;-54
2023/12/29 08:29:29;;;;;;;10.00;5.95;;;24.40;50.00;;;;;;6249427;27;80570;-57
2023/12/29 08:32:30;;;;;;;8.45;5.32;;;24.50;49.50;;;;;;6249641;27;81328;-59
2023/12/29 08:35:30;;;;;;;10.40;4.60;;;24.50;49.20;;;;;;6249169;27;80500;-54
2023/12/29 08:38:34;;;;;;;6.57;4.22;;;24.60;49.20;;;;;;6249300;27;80676;-56
2023/12/29 08:41:35;;;;;;;10.45;4.63;;;24.60;48.80;;;;;;6247951;27;80996;-56
2023/12/29 08:44:35;;;;;;;10.38;4.78;;;24.60;48.80;;;;;;6251123;27;81504;-58
2023/12/29 08:47:36;;;;;;;8.68;4.47;;;24.70;48.60;;;;;;6249446;27;80825;-59
2023/12/29 08:50:36;;;;;;;13.07;5.10;;;24.80;48.20;;;;;;6250692;27;81069;-58
2023/12/29 08:53:37;;;;;;;14.48;6.13;;;24.90;48.40;;;;;;6248723;27;81372;-56
2023/12/29 08:56:37;;;;;;;9.05;4.45;;;24.90;48.60;;;;;;6251016;27;80566;-58
2023/12/29 08:59:38;;;;;;;13.52;5.10;;;24.90;48.10;;;;;;6249948;27;81086;-56
2023/12/29 09:02:38;;;;;;;13.60;5.47;;;24.90;48.50;;;;;;6247180;27;85589;-60
2023/12/29 09:05:39;;;;;;;26.23;15.95;;;24.90;48.50;;;;;;6249578;27;82361;-56
2023/12/29 09:08:39;;;;;;;29.38;14.07;;;24.90;48.40;;;;;;6247650;27;82995;-56
2023/12/29 09:11:40;;;;;;;85.63;49.28;;;25.00;48.20;;;;;;6245640;27;84091;-57
2023/12/29 09:14:40;;;;;;;99.32;57.80;;;25.00;48.40;;;;;;6245164;27;83216;-58
2023/12/29 09:17:41;;;;;;;107.10;58.10;;;25.10;48.50;;;;;;6248826;27;84039;-57
2023/12/29 09:20:42;;;;;;;89.10;48.60;;;25.10;48.20;;;;;;6247949;27;84478;-56
2023/12/29 09:23:42;;;;;;;76.47;39.83;;;25.00;47.80;;;;;;6250883;27;83343;-60
2023/12/29 09:26:43;;;;;;;86.97;47.90;;;25.00;48.40;;;;;;6249621;27;83570;-59
2023/12/29 09:29:43;;;;;;;139.20;67.82;;;25.00;48.40;;;;;;6246956;27;88531;-64
2023/12/29 09:32:44;;;;;;;205.50;99.63;;;25.00;48.50;;;;;;6250046;27;82949;-59
2023/12/29 09:35:44;;;;;;;252.07;120.68;;;25.00;48.30;;;;;;6248622;27;83392;-57
2023/12/29 09:38:46;;;;;;;334.40;150.98;;;24.90;48.50;;;;;;6245775;27;87834;-60
2023/12/29 09:41:47;;;;;;;366.83;157.35;;;25.00;48.60;;;;;;6243346;27;86230;-59
2023/12/29 09:44:47;;;;;;;487.75;223.15;;;25.00;49.20;;;;;;6244016;27;85798;-60
2023/12/29 09:47:48;;;;;;;463.52;206.98;;;24.90;48.70;;;;;;6244354;27;86235;-57
2023/12/29 09:50:49;;;;;;;406.05;174.68;;;25.00;48.70;;;;;;6243659;27;85729;-55
2023/12/29 09:53:49;;;;;;;328.33;146.88;;;25.00;48.80;;;;;;6244152;27;89393;-56
2023/12/29 09:56:50;;;;;;;292.23;124.80;;;25.00;49.00;;;;;;6239986;27;85905;-54
2023/12/29 09:59:51;;;;;;;257.20;111.15;;;25.00;48.20;;;;;;6243371;27;85704;-55
2023/12/29 10:02:55;;;;;;;202.13;95.40;;;25.00;48.20;;;;;;6239766;27;86117;-58
2023/12/29 10:05:56;;;;;;;207.98;93.72;;;25.00;48.20;;;;;;6247193;27;84491;-54
2023/12/29 10:08:57;;;;;;;179.18;79.75;;;25.00;49.50;;;;;;6235003;27;83181;-54
2023/12/29 10:11:57;;;;;;;170.93;77.38;;;25.10;48.90;;;;;;6245758;27;83209;-53
2023/12/29 10:14:58;;;;;;;156.52;70.72;;;25.10;48.80;;;;;;6247121;27;83436;-51
2023/12/29 10:17:59;;;;;;;141.05;66.70;;;25.10;48.90;;;;;;6256572;27;90972;-52
2023/12/29 10:21:00;;;;;;;136.77;62.33;;;25.10;48.80;;;;;;6271665;27;85552;-48
2023/12/29 10:24:00;;;;;;;121.35;56.78;;;25.00;48.80;;;;;;6273697;27;83274;-52
2023/12/29 10:27:01;;;;;;;110.80;51.33;;;25.10;48.90;;;;;;6272869;27;82778;-47
2023/12/29 10:30:02;;;;;;;94.15;42.08;;;25.10;49.30;;;;;;6271764;27;83644;-50
2023/12/29 10:33:03;;;;;;;77.05;35.25;;;25.10;48.10;;;;;;6271515;27;83631;-47
2023/12/29 10:36:06;;;;;;;32.83;15.90;;;25.10;48.20;;;;;;6271492;27;83144;-52
2023/12/29 10:39:09;;;;;;;7.47;3.90;;;24.80;41.80;;;;;;6268043;27;87045;-52
2023/12/29 10:42:10;;;;;;;4.15;2.40;;;23.90;38.60;;;;;;6275192;27;83026;-58
2023/12/29 10:45:10;;;;;;;2.72;1.85;;;23.40;38.60;;;;;;6272934;27;80797;-58
2023/12/29 10:48:11;;;;;;;1.77;1.45;;;23.00;38.70;;;;;;6277033;27;80878;-57
2023/12/29 10:51:11;;;;;;;3.33;1.92;;;22.80;39.20;;;;;;6276146;27;80953;-55
2023/12/29 10:54:12;;;;;;;2.13;1.60;;;22.80;39.90;;;;;;6276043;27;80973;-57
2023/12/29 10:57:12;;;;;;;4.20;2.10;;;22.70;39.30;;;;;;6276710;27;80545;-58
2023/12/29 11:00:13;;;;;;;2.40;1.70;;;22.10;38.80;;;;;;6275975;27;81336;-54
2023/12/29 11:03:14;;;;;;;4.32;1.70;;;21.30;40.30;;;;;;6276601;27;80481;-55
2023/12/29 11:06:14;;;;;;;2.22;1.45;;;20.80;41.50;;;;;;6276617;27;80730;-55
2023/12/29 11:09:14;;;;;;;3.13;1.83;;;20.80;41.60;;;;;;6276885;27;80451;-51
2023/12/29 11:12:17;;;;;;;5.35;1.98;;;21.20;42.00;;;;;;6276205;27;80490;-49
2023/12/29 11:15:17;;;;;;;2.25;1.63;;;21.20;41.80;;;;;;6277545;27;80423;-51
2023/12/29 11:18:18;;;;;;;2.13;1.75;;;20.60;40.80;;;;;;6276490;27;80693;-50
2023/12/29 11:21:18;;;;;;;2.28;1.55;;;20.70;42.20;;;;;;6270181;27;81629;-55
2023/12/29 11:24:19;;;;;;;1.88;1.30;;;20.40;41.80;;;;;;6274196;27;80777;-53
2023/12/29 11:27:19;;;;;;;5.28;2.08;;;20.60;42.50;;;;;;6279467;27;80870;-52
2023/12/29 11:30:20;;;;;;;2.67;1.70;;;20.90;42.70;;;;;;6277504;27;81390;-50
2023/12/29 11:33:20;;;;;;;4.20;1.90;;;21.10;42.20;;;;;;6278754;27;82736;-50
2023/12/29 11:36:22;;;;;;;2.75;2.03;;;21.20;41.90;;;;;;6276450;27;80497;-51
2023/12/29 11:39:22;;;;;;;2.13;1.90;;;21.30;42.20;;;;;;6278366;27;80574;-54
2023/12/29 11:42:23;;;;;;;2.75;1.73;;;21.50;41.90;;;;;;6276521;27;82976;-55
2023/12/29 11:45:23;;;;;;;2.60;1.80;;;21.60;42.20;;;;;;6278948;27;80403;-52
2023/12/29 11:48:24;;;;;;;3.35;2.20;;;21.30;41.70;;;;;;6274796;27;80394;-49
2023/12/29 11:51:25;;;;;;;3.08;1.88;;;21.70;42.40;;;;;;6275459;27;80813;-53
2023/12/29 11:54:26;;;;;;;2.53;1.75;;;22.00;42.40;;;;;;6273558;27;80534;-58
2023/12/29 11:57:26;;;;;;;2.22;1.80;;;22.30;43.00;;;;;;6275879;27;80783;-59
2023/12/29 12:00:27;;;;;;;4.45;1.52;;;22.50;42.30;;;;;;6276147;27;80927;-57
2023/12/29 12:03:27;;;;;;;4.25;1.65;;;22.60;42.30;;;;;;6276859;27;82002;-56
2023/12/29 12:06:28;;;;;;;4.22;1.90;;;22.80;42.40;;;;;;6274578;27;80332;-58
2023/12/29 12:09:28;;;;;;;2.08;1.42;;;22.90;42.40;;;;;;6275988;27;86703;-60
2023/12/29 12:12:29;;;;;;;3.83;1.90;;;23.10;42.80;;;;;;6275646;27;81106;-57
2023/12/29 12:15:29;;;;;;;2.75;1.60;;;23.30;42.80;;;;;;6245030;27;83447;-60
2023/12/29 12:18:30;;;;;;;2.03;1.52;;;23.40;42.70;;;;;;6260989;27;81387;-60
2023/12/29 12:21:30;;;;;;;3.97;1.60;;;23.50;42.70;;;;;;6262634;27;82004;-58
2023/12/29 12:24:31;;;;;;;2.92;1.88;;;23.60;42.90;;;;;;6260296;27;81206;-58
2023/12/29 12:27:31;;;;;;;3.53;1.73;;;23.60;42.80;;;;;;6258596;27;81879;-58
2023/12/29 12:30:32;;;;;;;2.42;1.45;;;23.80;43.40;;;;;;6263093;27;81417;-52
2023/12/29 12:33:32;;;;;;;5.10;1.60;;;23.80;42.60;;;;;;6257425;27;80423;-58
2023/12/29 12:36:33;;;;;;;4.75;1.83;;;23.90;42.60;;;;;;6261995;27;81307;-58
2023/12/29 12:39:33;;;;;;;5.43;1.77;;;24.00;42.60;;;;;;6262540;27;81000;-58
2023/12/29 12:42:34;;;;;;;4.40;1.75;;;24.10;42.60;;;;;;6258615;27;82707;-57
2023/12/29 12:45:34;;;;;;;4.63;1.70;;;24.20;42.90;;;;;;6259824;27;81235;-57
2023/12/29 12:48:35;;;;;;;3.67;1.60;;;24.20;43.10;;;;;;6260814;27;81356;-55
2023/12/29 12:51:35;;;;;;;3.70;1.80;;;24.20;43.30;;;;;;6259980;27;81120;-50
2023/12/29 12:54:36;;;;;;;3.33;1.58;;;24.30;43.10;;;;;;6262419;27;81029;-54
2023/12/29 12:57:36;;;;;;;4.75;1.42;;;24.30;43.40;;;;;;6257964;27;82406;-55
2023/12/29 13:00:38;;;;;;;2.72;1.60;;;24.40;43.40;;;;;;6261567;27;81159;-52
2023/12/29 13:03:38;;;;;;;5.68;1.77;;;24.50;43.10;;;;;;6259778;27;86523;-52
2023/12/29 13:06:39;;;;;;;3.15;1.48;;;24.60;43.00;;;;;;6261340;27;81373;-49
2023/12/29 13:09:39;;;;;;;4.90;1.90;;;24.60;42.80;;;;;;6259208;27;80906;-48
2023/12/29 13:12:40;;;;;;;3.60;1.70;;;24.70;42.80;;;;;;6267234;27;80569;-52
2023/12/29 13:15:40;;;;;;;2.47;1.67;;;24.90;43.00;;;;;;6242165;27;80710;-47
2023/12/29 13:18:41;;;;;;;3.22;1.75;;;25.10;43.10;;;;;;6249041;27;84134;-53
2023/12/29 13:21:41;;;;;;;3.47;1.60;;;25.20;42.90;;;;;;6272024;27;80697;-54
2023/12/29 13:24:42;;;;;;;3.90;1.80;;;25.30;43.10;;;;;;6262372;27;80552;-57
2023/12/29 13:27:42;;;;;;;5.72;2.05;;;25.30;43.50;;;;;;6273264;27;81546;-50
2023/12/29 13:30:43;;;;;;;9.02;2.45;;;25.30;42.10;;;;;;6272476;27;80566;-47
2023/12/29 13:33:43;;;;;;;11.13;2.45;;;25.20;40.50;;;;;;6272313;27;80910;-50
2023/12/29 13:36:44;;;;;;;4.78;2.97;;;25.10;40.30;;;;;;6272931;27;80328;-52
2023/12/29 13:39:44;;;;;;;5.38;2.83;;;25.10;39.70;;;;;;6275618;27;81002;-49
2023/12/29 13:42:44;;;;;;;5.85;3.03;;;24.90;39.10;;;;;;6273245;27;80395;-53
2023/12/29 13:45:45;;;;;;;7.03;2.80;;;24.70;39.00;;;;;;6256389;27;81804;-59
2023/12/29 13:48:45;;;;;;;12.43;3.00;;;24.60;38.60;;;;;;6274688;27;80823;-59
2023/12/29 13:51:46;;;;;;;6.07;2.92;;;24.50;38.80;;;;;;6274180;27;82523;-59
2023/12/29 13:54:46;;;;;;;4.70;2.55;;;24.40;38.50;;;;;;6273549;27;80902;-58
2023/12/29 13:57:47;;;;;;;4.38;2.80;;;24.30;38.40;;;;;;6273904;27;81645;-59
2023/12/29 14:00:47;;;;;;;5.07;2.78;;;24.20;38.60;;;;;;6273380;27;80503;-58
2023/12/29 14:03:48;;;;;;;5.55;3.03;;;24.10;38.50;;;;;;6277198;27;80756;-56
2023/12/29 14:06:48;;;;;;;5.93;2.65;;;23.90;38.40;;;;;;6277983;27;81100;-57
2023/12/29 14:09:49;;;;;;;4.00;2.30;;;23.90;38.40;;;;;;6277187;27;81262;-59
2023/12/29 14:12:49;;;;;;;3.67;2.28;;;23.70;38.40;;;;;;6277513;27;80558;-57
2023/12/29 14:15:53;;;;;;;6.38;2.05;;;23.70;38.50;;;;;;6271195;27;80426;-58
2023/12/29 14:18:53;;;;;;;7.63;2.10;;;23.60;38.40;;;;;;6278541;27;81772;-59
2023/12/29 14:21:54;;;;;;;52.60;21.13;;;23.50;38.40;;;;;;6277291;27;80704;-57
2023/12/29 14:24:54;;;;;;;129.27;56.75;;;23.40;38.50;;;;;;6256630;27;85065;-52
2023/12/29 14:27:56;;;;;;;151.95;61.95;;;23.30;38.30;;;;;;6273024;27;83093;-55
2023/12/29 14:30:57;;;;;;;178.75;75.25;;;23.30;38.50;;;;;;6267556;27;83326;-55
2023/12/29 14:33:57;;;;;;;285.45;117.68;;;23.30;38.70;;;;;;6273111;27;84065;-55
2023/12/29 14:36:58;;;;;;;323.02;140.48;;;23.30;38.90;;;;;;6269310;27;86796;-55
2023/12/29 14:39:58;;;;;;;431.58;183.30;;;23.30;38.90;;;;;;6273008;27;86588;-55
2023/12/29 14:42:59;;;;;;;477.75;202.05;;;23.30;39.10;;;;;;6273418;27;88819;-55
2023/12/29 14:45:59;;;;;;;452.73;186.10;;;23.30;39.40;;;;;;6269232;27;86247;-53
2023/12/29 14:49:00;;;;;;;342.58;134.82;;;23.30;39.50;;;;;;6272114;27;86544;-56
2023/12/29 14:52:00;;;;;;;220.95;88.07;;;23.20;39.00;;;;;;6271719;27;86657;-56
2023/12/29 14:55:01;;;;;;;168.60;67.50;;;23.10;39.20;;;;;;6275742;27;85376;-56
2023/12/29 14:58:01;;;;;;;120.03;50.05;;;23.00;39.40;;;;;;6257285;27;83600;-58
2023/12/29 15:01:02;;;;;;;96.20;39.67;;;23.00;39.60;;;;;;6272330;27;83343;-59
2023/12/29 15:04:03;;;;;;;78.80;28.35;;;23.00;39.60;;;;;;6273796;27;85200;-58
2023/12/29 15:07:04;;;;;;;58.92;24.95;;;23.10;39.80;;;;;;6276557;27;83687;-58
2023/12/29 15:10:04;;;;;;;42.88;19.85;;;23.00;39.60;;;;;;6263843;27;82896;-59
2023/12/29 15:13:06;;;;;;;42.95;16.85;;;23.00;39.50;;;;;;6273121;27;83105;-59
2023/12/29 15:16:07;;;;;;;33.75;15.95;;;23.00;40.60;;;;;;6274173;27;84182;-53
2023/12/29 15:19:08;;;;;;;33.97;14.45;;;23.10;41.20;;;;;;6271788;27;85719;-49
2023/12/29 15:22:09;;;;;;;25.15;11.15;;;23.20;41.60;;;;;;6272518;27;83143;-51
2023/12/29 15:25:09;;;;;;;20.65;10.98;;;23.30;41.40;;;;;;6270594;27;85522;-55